Terminal Aerodrome Forecast
Issued by NWS

Home | Current Version | Previous Version | Text Only | Print | Product List | Glossary On
Versions: 1 2 3 4 5 6 7 8 9 10 11 12 13 14 15 16 17 18 19 20 21 22 23 24 25 26 27 28 29 30 31
000
FTUS45 KBOI 230044 AAA
TAFMYL
TAF AMD
KMYL 230044Z 2301/2324 VRB06KT P6SM -SHRA VCTS BKN050CB OVC080
      TEMPO 2301/2303 VRB15G25KT 1SM TSRA BR
     FM230500 35006KT P6SM SCT050 BKN100
     FM231800 33012G22KT P6SM VCSH BKN050 OVC080=

USA.gov is the U.S. government's official web portal to all federal, state and local government web resources and services.